Terminal Aerodrome Forecast
Issued by NWS Wilmington, NC

Home | Current Version | Previous Version | Text Only | Print | Product List | Glossary On
Versions: 1 2 3 4 5 6 7 8 9 10 11 12 13
000
FTUS42 KILM 311700
TAFMYR
TAF
KMYR 311721Z 3118/0118 33011KT P6SM SKC
     FM312100 20010KT P6SM SCT250
     FM010200 VRB01KT P6SM SCT120 BKN200
     FM011300 14008KT P6SM SCT150=

USA.gov is the U.S. government's official web portal to all federal, state and local government web resources and services.